Homer, Alaska
Current Conditions -  °F | °C
As of 2:53 PM on Friday 19 Dec 2014 (Local Time) from PAHO Reporting Station
Overcast Overcast  
Wind Chill: 35°   Ceiling: 6500
Heat Index: 40°   Visibility: 10mi
Dew Point: 33°   Wind: 7mph
Humidity: 77%   Direction: 40°NE
Pressure: 29.02"   Gusts: NA
Location:  59.64°N, 151.55°W
Report Text: PAHO 192353Z 04006KT 10SM OVC065 04/01 A2902 RMK AO2 SLP828 T00440006 10056 21022 56012
Loading
Personal Weather Stations






























Interactive Weather Map New forecast layout! Learn more

10-Day Weather Forecast

Advertisements
Track Severe Weather on mobile